Time;durP1;ratioP1;P1;durP2;ratioP2;P2;SDS_P1;SDS_P2;PMS_P1;PMS_P2;Temp;Humidity;BMP_temperature;BMP_pressure;BME280_temperature;BME280_humidity;BME280_pressure;Samples;Min_cycle;Max_cycle;Signal;HPM_P1;HPM_P2
2021/11/14 00:00:49;;;;;;;3.40;3.10;;;17.70;63.80;;;;;;5051800;28;20187;-64
2021/11/14 00:03:14;;;;;;;3.65;3.35;;;17.70;63.00;;;;;;5051358;28;20251;-64
2021/11/14 00:05:43;;;;;;;3.35;3.10;;;17.70;62.90;;;;;;5051628;28;20241;-63
2021/11/14 00:08:10;;;;;;;3.22;2.92;;;17.70;62.90;;;;;;5051802;28;20197;-62
2021/11/14 00:10:36;;;;;;;3.95;3.65;;;17.70;62.90;;;;;;5050696;28;20541;-62
2021/11/14 00:13:03;;;;;;;3.80;3.38;;;17.60;62.80;;;;;;5051678;28;20277;-64
2021/11/14 00:15:28;;;;;;;3.33;3.08;;;17.70;62.90;;;;;;5051944;28;20179;-64
2021/11/14 00:17:54;;;;;;;4.03;3.30;;;17.70;62.90;;;;;;5050779;28;20535;-63
2021/11/14 00:20:22;;;;;;;4.10;3.45;;;17.70;62.80;;;;;;5051493;28;20611;-64
2021/11/14 00:22:47;;;;;;;3.15;2.90;;;17.60;62.70;;;;;;5051463;28;20171;-64
2021/11/14 00:25:14;;;;;;;3.17;2.88;;;17.70;62.90;;;;;;5050772;28;20190;-66
2021/11/14 00:27:40;;;;;;;3.38;3.08;;;17.60;62.70;;;;;;5051409;28;20268;-64
2021/11/14 00:30:05;;;;;;;4.00;3.50;;;17.60;62.70;;;;;;5051358;28;20202;-65
2021/11/14 00:32:31;;;;;;;3.63;3.28;;;17.60;62.70;;;;;;5050551;28;20186;-63
2021/11/14 00:34:57;;;;;;;3.42;3.22;;;17.60;62.70;;;;;;5051807;28;20630;-64
2021/11/14 00:37:22;;;;;;;3.42;3.22;;;17.60;62.70;;;;;;5051733;28;20621;-65
2021/11/14 00:39:48;;;;;;;3.30;3.10;;;17.60;62.60;;;;;;5055236;28;21018;-64
2021/11/14 00:42:13;;;;;;;4.53;3.50;;;17.60;62.70;;;;;;5055289;28;20537;-63
2021/11/14 00:44:39;;;;;;;3.58;3.28;;;17.60;62.60;;;;;;5054452;28;20183;-64
2021/11/14 00:47:05;;;;;;;3.97;3.35;;;17.60;62.70;;;;;;5055125;28;20226;-63
2021/11/14 00:49:30;;;;;;;3.50;3.20;;;17.50;62.60;;;;;;5054896;28;20175;-63
2021/11/14 00:51:56;;;;;;;3.13;2.92;;;17.60;62.70;;;;;;5054342;28;20185;-62
2021/11/14 00:54:21;;;;;;;3.85;3.55;;;17.50;62.60;;;;;;5055106;28;20176;-65
2021/11/14 00:56:47;;;;;;;3.40;3.20;;;17.50;62.60;;;;;;5054716;28;20182;-64
2021/11/14 00:59:12;;;;;;;3.50;3.20;;;17.50;62.60;;;;;;5054544;28;20355;-66
2021/11/14 01:01:38;;;;;;;3.20;2.90;;;17.50;62.60;;;;;;5055013;28;20167;-63
2021/11/14 01:04:03;;;;;;;3.85;3.45;;;17.50;62.60;;;;;;5055025;28;20171;-63
2021/11/14 01:06:29;;;;;;;3.10;2.90;;;17.50;62.60;;;;;;5054148;28;20320;-63
2021/11/14 01:08:54;;;;;;;3.38;3.08;;;17.50;62.50;;;;;;5055072;28;20630;-62
2021/11/14 01:11:20;;;;;;;3.05;2.85;;;17.50;62.60;;;;;;5055038;28;20540;-63
2021/11/14 01:13:45;;;;;;;3.38;2.90;;;17.50;62.60;;;;;;5054133;28;20190;-63
2021/11/14 01:16:12;;;;;;;7.40;3.33;;;17.50;62.60;;;;;;5054884;28;20175;-64
2021/11/14 01:18:38;;;;;;;3.53;3.22;;;17.50;62.60;;;;;;5054808;28;20290;-64
2021/11/14 01:21:06;;;;;;;3.50;3.20;;;17.50;62.60;;;;;;5054029;28;20179;-64
2021/11/14 01:23:32;;;;;;;3.80;3.50;;;17.50;62.50;;;;;;5054345;28;20227;-64
2021/11/14 01:25:57;;;;;;;3.47;3.17;;;17.40;62.50;;;;;;5055005;28;20650;-63
2021/11/14 01:28:23;;;;;;;3.35;2.88;;;17.50;62.60;;;;;;5054151;28;20270;-64
2021/11/14 01:30:50;;;;;;;3.50;3.17;;;17.40;62.50;;;;;;5054536;28;20221;-65
2021/11/14 01:33:17;;;;;;;3.63;3.33;;;17.40;62.50;;;;;;5054914;28;20175;-65
2021/11/14 01:35:42;;;;;;;3.22;3.00;;;17.40;62.50;;;;;;5053612;28;20248;-62
2021/11/14 01:38:08;;;;;;;3.78;3.47;;;17.40;62.50;;;;;;5054499;28;20677;-63
2021/11/14 01:40:58;;;;;;;3.25;3.05;;;17.40;62.50;;;;;;5054250;28;20178;-63
2021/11/14 01:43:26;;;;;;;3.35;3.10;;;17.40;62.50;;;;;;5053847;28;20189;-63
2021/11/14 01:45:52;;;;;;;2.97;2.78;;;17.40;62.40;;;;;;5054148;28;20198;-63
2021/11/14 01:48:17;;;;;;;3.33;3.03;;;17.40;62.50;;;;;;5053463;28;20690;-63
2021/11/14 01:50:43;;;;;;;3.38;3.10;;;17.40;62.40;;;;;;5053882;28;20183;-63
2021/11/14 01:53:09;;;;;;;3.50;3.20;;;17.40;62.40;;;;;;5054402;28;20209;-64
2021/11/14 01:55:35;;;;;;;3.40;3.10;;;17.40;62.40;;;;;;5053418;28;20179;-64
2021/11/14 01:58:00;;;;;;;3.30;3.00;;;17.40;62.50;;;;;;5053922;28;20585;-64
2021/11/14 02:00:41;;;;;;;3.38;3.17;;;17.40;62.40;;;;;;5054317;28;20167;-65
2021/11/14 02:03:07;;;;;;;3.80;2.95;;;17.30;62.40;;;;;;5053392;28;20209;-64
2021/11/14 02:05:32;;;;;;;3.00;2.80;;;17.30;62.40;;;;;;5053641;28;20175;-62
2021/11/14 02:07:59;;;;;;;3.03;2.83;;;17.40;62.40;;;;;;5054231;28;20610;-62
2021/11/14 02:10:25;;;;;;;3.10;2.90;;;17.30;62.30;;;;;;5053205;28;20187;-64
2021/11/14 02:12:51;;;;;;;3.67;3.40;;;17.30;62.40;;;;;;5053752;28;20175;-64
2021/11/14 02:15:17;;;;;;;3.65;3.35;;;17.30;62.40;;;;;;5053953;28;20175;-65
2021/11/14 02:17:42;;;;;;;3.50;3.20;;;17.30;62.40;;;;;;5052716;28;20293;-64
2021/11/14 02:20:11;;;;;;;3.10;2.80;;;17.30;62.40;;;;;;5053771;28;20205;-64
2021/11/14 02:22:37;;;;;;;3.45;3.15;;;17.30;62.40;;;;;;5053267;28;20692;-64
2021/11/14 02:25:04;;;;;;;3.60;3.30;;;17.30;62.40;;;;;;5053115;28;20171;-64
2021/11/14 02:27:29;;;;;;;3.72;3.42;;;17.30;62.40;;;;;;5051996;28;20639;-64
2021/11/14 02:29:55;;;;;;;3.90;3.60;;;17.30;62.40;;;;;;5052762;28;20210;-63
2021/11/14 02:32:20;;;;;;;3.72;3.35;;;17.30;62.40;;;;;;5053515;28;20213;-62
2021/11/14 02:34:46;;;;;;;3.70;3.40;;;17.30;62.40;;;;;;5053182;28;20207;-64
2021/11/14 02:37:11;;;;;;;3.97;3.67;;;17.30;62.40;;;;;;5052746;28;20425;-64
2021/11/14 02:39:37;;;;;;;4.20;3.80;;;17.30;62.40;;;;;;5053235;28;20220;-63
2021/11/14 02:42:04;;;;;;;4.13;3.72;;;17.30;62.40;;;;;;5053473;28;20175;-62
2021/11/14 02:44:29;;;;;;;3.70;3.40;;;17.30;62.40;;;;;;5052321;28;20258;-63
2021/11/14 02:46:55;;;;;;;3.90;3.60;;;17.30;62.40;;;;;;5052984;28;20258;-62
2021/11/14 02:49:21;;;;;;;3.40;3.10;;;17.30;62.50;;;;;;5053155;28;20175;-64
2021/11/14 02:51:46;;;;;;;3.88;3.58;;;17.20;62.30;;;;;;5051972;28;20513;-63
2021/11/14 02:54:12;;;;;;;4.00;3.70;;;17.20;62.30;;;;;;5053189;28;20643;-64
2021/11/14 02:56:37;;;;;;;4.07;3.78;;;17.20;62.40;;;;;;5052587;28;20601;-64
2021/11/14 02:59:03;;;;;;;4.05;3.75;;;17.20;62.40;;;;;;5052421;28;20258;-65
2021/11/14 03:01:35;;;;;;;4.05;3.70;;;17.20;63.20;;;;;;5051823;28;20296;-64
2021/11/14 03:04:01;;;;;;;4.32;4.03;;;17.20;62.40;;;;;;5053135;28;20179;-64
2021/11/14 03:06:27;;;;;;;3.90;3.60;;;17.20;62.40;;;;;;5052255;28;20167;-63
2021/11/14 03:08:53;;;;;;;4.35;3.58;;;17.20;62.40;;;;;;5052853;28;20283;-63
2021/11/14 03:11:18;;;;;;;4.82;4.43;;;17.20;62.40;;;;;;5052796;28;20221;-64
2021/11/14 03:13:44;;;;;;;3.92;3.50;;;17.20;62.40;;;;;;5051612;28;20260;-64
2021/11/14 03:16:11;;;;;;;4.18;3.88;;;17.20;62.40;;;;;;5052506;28;20199;-64
2021/11/14 03:18:37;;;;;;;3.80;3.50;;;17.20;62.40;;;;;;5052189;28;20712;-64
2021/11/14 03:21:03;;;;;;;4.60;4.20;;;17.20;62.40;;;;;;5051749;28;20212;-64
2021/11/14 03:23:28;;;;;;;5.15;4.65;;;17.20;62.40;;;;;;5052256;28;20196;-64
2021/11/14 03:25:54;;;;;;;4.38;4.00;;;17.20;62.40;;;;;;5052393;28;20175;-64
2021/11/14 03:28:20;;;;;;;4.65;4.03;;;17.20;62.40;;;;;;5051581;28;20175;-64
2021/11/14 03:30:45;;;;;;;4.38;3.97;;;17.20;62.40;;;;;;5052121;28;20171;-63
2021/11/14 03:33:12;;;;;;;4.53;4.13;;;17.20;62.40;;;;;;5052027;28;20596;-65
2021/11/14 03:35:42;;;;;;;4.50;4.10;;;17.10;62.40;;;;;;5052148;28;20326;-63
2021/11/14 03:38:08;;;;;;;4.78;4.32;;;17.20;62.40;;;;;;5052154;28;20214;-63
2021/11/14 03:40:34;;;;;;;4.68;4.25;;;17.20;62.40;;;;;;5051254;28;20183;-64
2021/11/14 03:43:00;;;;;;;4.85;4.45;;;17.20;62.40;;;;;;5052100;28;20266;-64
2021/11/14 03:45:25;;;;;;;4.75;4.20;;;17.10;62.40;;;;;;5051927;28;20622;-64
2021/11/14 03:47:51;;;;;;;4.80;4.40;;;17.20;62.40;;;;;;5050873;28;20549;-61
2021/11/14 03:50:16;;;;;;;4.57;4.18;;;17.10;62.40;;;;;;5052013;28;20186;-63
2021/11/14 03:52:44;;;;;;;4.88;4.47;;;17.10;62.40;;;;;;5051630;28;20237;-63
2021/11/14 03:55:10;;;;;;;4.78;4.38;;;17.10;62.40;;;;;;5051274;28;20178;-66
2021/11/14 03:57:35;;;;;;;5.18;4.68;;;17.10;62.50;;;;;;5050335;28;20578;-63
2021/11/14 04:00:01;;;;;;;4.88;4.22;;;17.10;62.50;;;;;;5051687;28;20262;-63
2021/11/14 04:02:26;;;;;;;5.03;4.53;;;17.10;62.50;;;;;;5051346;28;20201;-63
2021/11/14 04:04:52;;;;;;;4.70;4.30;;;17.10;62.50;;;;;;5051670;28;20178;-64
2021/11/14 04:07:20;;;;;;;4.93;4.53;;;17.10;62.50;;;;;;5051937;28;20198;-63
2021/11/14 04:09:45;;;;;;;4.50;4.20;;;17.10;62.40;;;;;;5050843;28;20190;-63
2021/11/14 04:12:11;;;;;;;5.10;4.63;;;17.10;62.50;;;;;;5051864;28;20316;-64
2021/11/14 04:14:36;;;;;;;4.93;4.53;;;17.10;62.40;;;;;;5051290;28;20302;-65
2021/11/14 04:17:02;;;;;;;5.78;5.22;;;17.10;62.50;;;;;;5051021;28;20258;-64
2021/11/14 04:19:27;;;;;;;5.15;4.75;;;17.10;62.40;;;;;;5051471;28;20258;-63
2021/11/14 04:21:56;;;;;;;4.72;4.32;;;17.10;62.50;;;;;;5051428;28;20175;-63
2021/11/14 04:24:21;;;;;;;4.70;4.30;;;17.10;62.50;;;;;;5050766;28;20179;-65
2021/11/14 04:26:47;;;;;;;6.68;5.07;;;17.10;63.30;;;;;;5051209;28;20634;-64
2021/11/14 04:29:12;;;;;;;5.18;4.78;;;17.10;62.50;;;;;;5051385;28;20506;-66
2021/11/14 04:31:38;;;;;;;5.00;4.60;;;17.10;62.40;;;;;;5050568;28;20171;-64
2021/11/14 04:34:03;;;;;;;4.82;4.38;;;17.10;62.50;;;;;;5051531;28;20194;-64
2021/11/14 04:36:29;;;;;;;5.57;5.03;;;17.00;62.40;;;;;;5050753;28;20174;-63
2021/11/14 04:38:54;;;;;;;5.40;5.00;;;17.00;62.50;;;;;;5051244;28;20305;-64
2021/11/14 04:41:20;;;;;;;5.32;4.82;;;17.00;63.20;;;;;;5051495;28;20174;-65
2021/11/14 04:43:45;;;;;;;5.35;4.75;;;17.00;62.40;;;;;;5050307;28;20179;-64
2021/11/14 04:46:11;;;;;;;5.10;4.60;;;17.00;62.40;;;;;;5051341;28;20528;-64
2021/11/14 04:48:36;;;;;;;5.85;5.25;;;17.00;63.30;;;;;;5051040;28;20606;-63
2021/11/14 04:51:02;;;;;;;5.65;5.15;;;17.00;62.50;;;;;;5050467;28;20614;-64
2021/11/14 04:53:27;;;;;;;6.38;5.78;;;17.00;62.50;;;;;;5051435;28;20183;-65
2021/11/14 04:55:53;;;;;;;5.53;5.03;;;17.00;62.50;;;;;;5050988;28;20182;-64
2021/11/14 04:58:18;;;;;;;5.70;5.20;;;17.00;62.50;;;;;;5050330;28;20203;-65
2021/11/14 05:00:46;;;;;;;5.90;5.32;;;17.00;62.50;;;;;;5051095;28;20194;-65
2021/11/14 05:03:12;;;;;;;4.70;4.28;;;17.00;62.50;;;;;;5051272;28;20179;-65
2021/11/14 05:05:37;;;;;;;5.00;4.60;;;17.00;62.50;;;;;;5050043;28;20209;-64
2021/11/14 05:08:04;;;;;;;5.60;5.07;;;17.00;62.50;;;;;;5051372;28;20630;-63
2021/11/14 05:10:30;;;;;;;6.55;5.53;;;17.00;62.50;;;;;;5050910;28;20633;-64
2021/11/14 05:12:56;;;;;;;5.78;5.28;;;17.00;62.50;;;;;;5050296;28;20179;-64
2021/11/14 05:15:21;;;;;;;8.15;5.55;;;17.00;62.50;;;;;;5051341;28;20178;-65
2021/11/14 05:17:47;;;;;;;5.35;4.90;;;16.90;62.50;;;;;;5050729;28;20207;-62
2021/11/14 05:20:12;;;;;;;6.10;5.50;;;17.00;62.50;;;;;;5050276;28;20171;-63
2021/11/14 05:22:38;;;;;;;5.72;5.22;;;16.90;62.50;;;;;;5050647;28;20178;-63
2021/11/14 05:25:04;;;;;;;6.07;5.55;;;17.00;62.50;;;;;;5054444;28;20179;-64
2021/11/14 05:27:30;;;;;;;5.43;4.93;;;17.00;62.60;;;;;;5053532;28;20183;-63
2021/11/14 05:29:55;;;;;;;5.50;5.00;;;16.90;62.50;;;;;;5054770;28;20171;-63
2021/11/14 05:32:21;;;;;;;6.10;5.60;;;16.90;62.50;;;;;;5054665;28;20175;-63
2021/11/14 05:34:46;;;;;;;7.50;5.38;;;16.90;62.50;;;;;;5053686;28;20174;-63
2021/11/14 05:37:12;;;;;;;6.18;5.57;;;16.90;62.60;;;;;;5054115;28;20215;-64
2021/11/14 05:39:37;;;;;;;5.40;5.00;;;16.90;62.50;;;;;;5054400;28;20171;-64
2021/11/14 05:42:03;;;;;;;5.75;5.18;;;16.90;62.50;;;;;;5053559;28;20194;-63
2021/11/14 05:44:29;;;;;;;6.82;6.18;;;16.90;62.50;;;;;;5054106;28;20175;-64
2021/11/14 05:46:54;;;;;;;6.10;5.50;;;16.90;62.60;;;;;;5053514;28;20227;-63
2021/11/14 05:49:23;;;;;;;6.45;5.78;;;16.90;62.50;;;;;;5054347;28;20626;-64
2021/11/14 05:51:48;;;;;;;6.35;5.82;;;16.90;62.50;;;;;;5053934;28;20547;-63
2021/11/14 05:54:14;;;;;;;5.85;5.25;;;16.90;62.50;;;;;;5053442;28;20676;-65
2021/11/14 05:56:39;;;;;;;6.05;5.55;;;16.90;62.60;;;;;;5053787;28;20259;-64
2021/11/14 06:01:42;;;;;;;6.15;5.40;;;16.90;62.60;;;;;;5053293;28;20653;-64
2021/11/14 06:06:33;;;;;;;5.78;5.28;;;16.90;62.60;;;;;;5053870;28;20171;-63
2021/11/14 06:08:59;;;;;;;6.45;5.85;;;16.90;62.60;;;;;;5052967;28;20542;-63
2021/11/14 06:11:25;;;;;;;7.78;6.15;;;16.90;62.60;;;;;;5054086;28;20163;-63
2021/11/14 06:13:52;;;;;;;5.93;5.28;;;16.80;62.50;;;;;;5053686;28;20254;-65
2021/11/14 06:16:17;;;;;;;5.90;5.40;;;16.80;62.50;;;;;;5053069;28;20541;-64
2021/11/14 06:18:43;;;;;;;5.72;5.22;;;16.80;62.50;;;;;;5052107;28;20214;-64
2021/11/14 06:21:08;;;;;;;5.90;5.13;;;16.90;62.60;;;;;;5053714;28;20262;-64
2021/11/14 06:23:34;;;;;;;6.55;6.03;;;16.80;62.50;;;;;;5052481;28;20545;-64
2021/11/14 06:25:59;;;;;;;6.25;5.75;;;16.80;62.50;;;;;;5053847;28;20274;-64
2021/11/14 06:28:25;;;;;;;5.93;5.43;;;16.90;62.70;;;;;;5053580;28;20175;-65
2021/11/14 06:30:50;;;;;;;6.10;5.60;;;16.80;62.60;;;;;;5052590;28;20275;-64
2021/11/14 06:33:16;;;;;;;6.10;5.55;;;16.80;62.50;;;;;;5053464;28;20171;-64
2021/11/14 06:35:41;;;;;;;6.40;5.80;;;16.80;62.50;;;;;;5051941;28;20190;-62
2021/11/14 06:38:07;;;;;;;6.20;5.57;;;16.80;62.50;;;;;;5052476;28;20611;-63
2021/11/14 06:40:32;;;;;;;6.13;5.63;;;16.80;62.50;;;;;;5053237;28;20179;-63
2021/11/14 06:42:58;;;;;;;5.93;5.40;;;16.80;62.50;;;;;;5053645;28;20175;-62
2021/11/14 06:45:23;;;;;;;5.35;4.95;;;16.80;62.60;;;;;;5052592;28;20213;-63
2021/11/14 06:47:49;;;;;;;5.63;5.18;;;16.80;62.60;;;;;;5052583;28;20674;-61
2021/11/14 06:50:14;;;;;;;6.40;5.80;;;16.80;62.60;;;;;;5052319;28;20176;-63
2021/11/14 06:52:40;;;;;;;6.00;5.47;;;16.80;62.60;;;;;;5052799;28;20201;-62
2021/11/14 06:55:07;;;;;;;5.88;5.38;;;16.80;62.60;;;;;;5052906;28;20171;-64
2021/11/14 06:57:32;;;;;;;5.38;4.88;;;16.80;62.60;;;;;;5052252;28;20658;-63
2021/11/14 06:59:58;;;;;;;6.15;5.55;;;16.80;62.60;;;;;;5052674;28;20174;-63
2021/11/14 07:02:23;;;;;;;5.88;5.35;;;16.80;62.60;;;;;;5052968;28;20187;-62
2021/11/14 07:04:49;;;;;;;5.70;5.15;;;16.80;62.60;;;;;;5051950;28;20198;-63
2021/11/14 07:07:14;;;;;;;5.30;4.80;;;16.80;62.60;;;;;;5052798;28;20167;-64
2021/11/14 07:09:40;;;;;;;5.25;4.80;;;16.80;62.60;;;;;;5052501;28;20171;-62
2021/11/14 07:12:09;;;;;;;5.40;4.90;;;16.80;62.60;;;;;;5052162;28;20178;-64
2021/11/14 07:14:34;;;;;;;5.72;5.25;;;16.70;62.60;;;;;;5052366;28;20197;-64
2021/11/14 07:17:00;;;;;;;5.85;5.18;;;16.80;62.60;;;;;;5052518;28;20565;-63
2021/11/14 07:19:25;;;;;;;5.63;5.13;;;16.70;62.60;;;;;;5051613;28;20237;-65
2021/11/14 07:21:51;;;;;;;6.35;5.75;;;16.70;62.60;;;;;;5052300;28;20180;-62
2021/11/14 07:24:16;;;;;;;6.22;5.63;;;16.80;62.60;;;;;;5052404;28;20171;-64
2021/11/14 07:26:42;;;;;;;5.68;5.18;;;16.70;62.60;;;;;;5051638;28;20167;-63
2021/11/14 07:29:07;;;;;;;5.55;5.05;;;16.70;62.60;;;;;;5052699;28;20687;-64
2021/11/14 07:31:33;;;;;;;5.63;5.13;;;16.70;62.60;;;;;;5052006;28;20252;-63
2021/11/14 07:33:59;;;;;;;5.28;4.88;;;16.80;62.70;;;;;;5051709;28;20268;-63
2021/11/14 07:36:24;;;;;;;5.40;4.90;;;16.80;62.80;;;;;;5052342;28;20171;-64
2021/11/14 07:38:50;;;;;;;4.63;4.22;;;16.80;62.90;;;;;;5051732;28;20214;-63
2021/11/14 07:41:15;;;;;;;5.35;4.85;;;16.90;62.80;;;;;;5051287;28;20661;-64
2021/11/14 07:43:41;;;;;;;4.68;4.28;;;17.10;62.50;;;;;;5051996;28;20178;-64
2021/11/14 07:46:07;;;;;;;5.80;4.72;;;17.30;62.40;;;;;;5052063;28;20171;-62
2021/11/14 07:48:35;;;;;;;4.68;4.28;;;17.40;62.20;;;;;;5050956;28;20233;-63
2021/11/14 07:51:01;;;;;;;4.78;4.38;;;17.60;61.70;;;;;;5051938;28;20174;-63
2021/11/14 07:53:28;;;;;;;4.68;4.28;;;17.80;61.30;;;;;;5051323;28;20171;-64
2021/11/14 07:55:53;;;;;;;4.45;4.05;;;17.90;61.00;;;;;;5051774;28;20548;-64
2021/11/14 07:58:19;;;;;;;4.63;4.22;;;17.90;60.80;;;;;;5051727;28;20219;-64
2021/11/14 08:00:44;;;;;;;4.32;3.95;;;18.00;60.60;;;;;;5050994;28;20686;-64
2021/11/14 08:03:10;;;;;;;4.00;3.60;;;18.10;60.40;;;;;;5051946;28;20548;-63
2021/11/14 08:05:37;;;;;;;3.90;3.60;;;18.20;60.20;;;;;;5051548;28;20170;-63
2021/11/14 08:08:02;;;;;;;3.58;3.28;;;18.30;60.20;;;;;;5051184;28;20341;-63
2021/11/14 08:10:29;;;;;;;3.80;3.50;;;18.40;59.90;;;;;;5052208;28;20262;-64
2021/11/14 08:12:54;;;;;;;3.53;3.22;;;18.50;59.80;;;;;;5051918;28;20688;-64
2021/11/14 08:15:21;;;;;;;4.38;4.00;;;18.60;59.50;;;;;;5051154;28;20175;-66
2021/11/14 08:17:47;;;;;;;3.92;3.63;;;18.70;59.30;;;;;;5051684;28;20213;-70
2021/11/14 08:20:12;;;;;;;4.40;3.83;;;18.80;59.20;;;;;;5051716;28;20543;-69
2021/11/14 08:22:38;;;;;;;3.90;3.40;;;18.90;59.10;;;;;;5050739;28;20202;-68
2021/11/14 08:25:05;;;;;;;3.75;3.45;;;18.90;58.90;;;;;;5051796;28;20675;-67
2021/11/14 08:27:30;;;;;;;3.70;3.40;;;18.90;59.10;;;;;;5051396;28;20179;-63
2021/11/14 08:29:57;;;;;;;4.18;3.78;;;18.90;59.10;;;;;;5050885;28;20265;-65
2021/11/14 08:32:22;;;;;;;4.18;3.75;;;18.90;60.10;;;;;;5051628;28;20171;-67
2021/11/14 08:34:48;;;;;;;4.50;3.58;;;18.80;59.80;;;;;;5051220;28;20175;-68
2021/11/14 08:37:13;;;;;;;4.68;3.35;;;18.70;60.00;;;;;;5050561;28;20681;-68
2021/11/14 08:39:39;;;;;;;4.38;3.70;;;18.70;60.20;;;;;;5051285;28;20179;-68
2021/11/14 08:42:05;;;;;;;3.85;3.45;;;18.70;60.40;;;;;;5051751;28;20266;-67
2021/11/14 08:44:31;;;;;;;7.38;3.30;;;18.60;60.70;;;;;;5050514;28;20179;-68
2021/11/14 08:46:56;;;;;;;3.55;3.25;;;18.50;60.90;;;;;;5051307;28;20214;-67
2021/11/14 08:49:22;;;;;;;3.80;3.40;;;18.50;61.10;;;;;;5051109;28;20237;-66
2021/11/14 08:51:48;;;;;;;4.10;3.55;;;18.40;61.20;;;;;;5050512;28;20581;-67
2021/11/14 08:54:14;;;;;;;4.63;3.38;;;18.30;61.50;;;;;;5051579;28;20537;-67
2021/11/14 08:56:39;;;;;;;6.93;3.45;;;18.30;61.70;;;;;;5051224;28;20171;-68
2021/11/14 08:59:05;;;;;;;4.35;3.63;;;18.20;61.80;;;;;;5052582;28;20246;-67
2021/11/14 09:01:31;;;;;;;3.53;3.17;;;18.20;61.90;;;;;;5055030;28;20185;-66
2021/11/14 09:03:57;;;;;;;3.97;3.35;;;18.20;62.20;;;;;;5054288;28;20175;-66
2021/11/14 09:06:22;;;;;;;3.75;3.45;;;18.10;62.60;;;;;;5054959;28;20593;-65
2021/11/14 09:08:48;;;;;;;3.22;2.92;;;18.00;62.60;;;;;;5054946;28;20179;-65
2021/11/14 09:11:14;;;;;;;3.80;3.50;;;18.00;62.70;;;;;;5054458;28;20705;-62
2021/11/14 09:13:39;;;;;;;4.22;3.83;;;18.00;62.90;;;;;;5054133;28;20194;-68
2021/11/14 09:16:05;;;;;;;6.95;3.60;;;17.90;62.60;;;;;;5063514;28;20172;-68
2021/11/14 09:18:30;;;;;;;3.95;2.95;;;17.90;62.80;;;;;;5061781;28;20601;-68
2021/11/14 09:20:56;;;;;;;4.35;3.50;;;17.80;62.90;;;;;;5074923;28;20633;-68
2021/11/14 09:23:22;;;;;;;5.30;3.42;;;17.80;62.90;;;;;;5061886;28;20258;-68
2021/11/14 09:25:47;;;;;;;4.88;3.60;;;17.70;63.10;;;;;;5054030;28;20257;-68
2021/11/14 09:28:14;;;;;;;3.55;3.28;;;17.70;63.00;;;;;;5054736;28;20667;-68
2021/11/14 09:30:42;;;;;;;4.40;3.60;;;17.70;63.00;;;;;;5057423;28;20182;-67
2021/11/14 09:33:08;;;;;;;7.47;3.75;;;17.70;63.10;;;;;;5071770;28;20187;-68
2021/11/14 09:35:33;;;;;;;3.72;3.13;;;17.80;63.10;;;;;;5074505;28;20170;-68
2021/11/14 09:37:59;;;;;;;4.57;3.45;;;17.80;62.90;;;;;;5074212;28;20515;-67
2021/11/14 09:40:25;;;;;;;5.00;3.58;;;17.80;62.80;;;;;;5073568;28;20181;-67
2021/11/14 09:42:50;;;;;;;3.17;2.90;;;17.80;62.70;;;;;;5074222;28;20186;-66
2021/11/14 09:45:16;;;;;;;4.03;3.25;;;17.90;62.60;;;;;;5074266;28;20171;-64
2021/11/14 09:47:41;;;;;;;3.70;3.40;;;17.90;62.60;;;;;;5070880;28;20218;-66
2021/11/14 09:50:07;;;;;;;3.80;3.45;;;17.90;62.40;;;;;;5053125;28;20167;-68
2021/11/14 09:52:33;;;;;;;10.43;3.60;;;17.90;62.50;;;;;;5054199;28;20187;-66
2021/11/14 09:55:01;;;;;;;5.28;3.83;;;17.90;62.90;;;;;;5053678;28;20194;-67
2021/11/14 09:57:26;;;;;;;4.85;3.33;;;17.80;63.10;;;;;;5054112;28;20297;-67
2021/11/14 09:59:52;;;;;;;7.75;3.67;;;17.90;63.40;;;;;;5053643;28;20266;-66
2021/11/14 10:02:18;;;;;;;5.85;3.58;;;17.90;63.20;;;;;;5051828;28;20175;-65
2021/11/14 10:04:44;;;;;;;4.40;4.00;;;17.90;63.20;;;;;;5053516;28;20199;-67
2021/11/14 10:07:15;;;;;;;3.70;3.30;;;17.90;63.00;;;;;;5053457;28;20202;-66
2021/11/14 10:09:51;;;;;;;4.25;3.25;;;18.00;62.90;;;;;;5053475;28;20171;-66
2021/11/14 10:12:23;;;;;;;10.23;3.90;;;18.10;63.00;;;;;;5054049;28;20540;-65
2021/11/14 10:14:51;;;;;;;8.43;3.85;;;18.10;62.90;;;;;;5052861;28;20182;-65
2021/11/14 10:17:25;;;;;;;4.93;3.10;;;18.20;62.90;;;;;;5054033;28;20244;-66
2021/11/14 10:20:03;;;;;;;5.63;3.67;;;18.30;62.70;;;;;;5053621;28;20175;-66
2021/11/14 10:22:28;;;;;;;5.57;3.13;;;18.50;62.60;;;;;;5061732;28;20175;-66
2021/11/14 10:24:54;;;;;;;5.35;3.00;;;18.60;62.40;;;;;;5072103;28;20178;-66
2021/11/14 10:27:20;;;;;;;5.55;2.85;;;18.60;62.00;;;;;;5072090;28;20170;-68
2021/11/14 10:29:47;;;;;;;7.05;3.10;;;18.80;61.80;;;;;;5054493;28;20581;-68
2021/11/14 10:32:15;;;;;;;3.25;2.70;;;18.90;61.30;;;;;;5073615;28;20175;-67
2021/11/14 10:34:45;;;;;;;4.55;3.40;;;19.10;60.70;;;;;;5073188;28;20178;-68
2021/11/14 10:37:11;;;;;;;2.80;2.60;;;19.20;60.20;;;;;;5072365;28;20220;-68
2021/11/14 10:39:37;;;;;;;4.25;3.05;;;19.30;60.10;;;;;;5072849;28;20186;-68
2021/11/14 10:42:09;;;;;;;4.95;2.63;;;19.40;59.90;;;;;;5073194;28;20170;-68
2021/11/14 10:44:35;;;;;;;2.78;2.58;;;19.40;59.70;;;;;;5054883;28;20222;-68
2021/11/14 10:47:10;;;;;;;4.57;2.90;;;19.50;59.70;;;;;;5054885;28;20250;-68
2021/11/14 10:49:35;;;;;;;4.18;2.38;;;19.50;59.60;;;;;;5072134;28;20246;-66
2021/11/14 10:52:01;;;;;;;3.10;2.75;;;19.50;59.70;;;;;;5073099;28;20166;-67
2021/11/14 10:54:27;;;;;;;4.35;3.00;;;19.40;59.80;;;;;;5072754;28;20170;-68
2021/11/14 10:57:00;;;;;;;4.07;2.78;;;19.40;59.90;;;;;;5072124;28;20720;-67
2021/11/14 10:59:26;;;;;;;5.40;2.78;;;19.30;60.20;;;;;;5072816;28;20625;-68
2021/11/14 11:01:52;;;;;;;3.30;2.67;;;19.30;60.50;;;;;;5072618;28;20257;-67
2021/11/14 11:04:22;;;;;;;3.00;2.70;;;19.20;60.80;;;;;;5072346;28;20190;-66
2021/11/14 11:06:59;;;;;;;7.68;3.00;;;19.10;60.90;;;;;;5072463;28;20602;-66
2021/11/14 11:09:34;;;;;;;4.68;2.97;;;19.10;61.00;;;;;;5073058;28;20582;-66
2021/11/14 11:12:02;;;;;;;4.70;2.88;;;19.00;61.20;;;;;;5072266;28;20216;-65
2021/11/14 11:14:28;;;;;;;5.10;2.92;;;19.00;61.30;;;;;;5072687;28;20182;-66
2021/11/14 11:16:53;;;;;;;3.05;2.75;;;18.90;61.40;;;;;;5072596;28;20281;-67
2021/11/14 11:19:23;;;;;;;4.50;2.85;;;18.90;61.50;;;;;;5071502;28;20309;-66
2021/11/14 11:21:49;;;;;;;4.72;2.60;;;18.90;61.70;;;;;;5069345;28;20254;-67
2021/11/14 11:24:20;;;;;;;5.30;2.83;;;18.80;61.70;;;;;;5052640;28;20549;-66
2021/11/14 11:26:58;;;;;;;3.05;2.42;;;18.70;61.80;;;;;;5051615;28;20175;-67
2021/11/14 11:29:24;;;;;;;3.72;2.42;;;18.70;62.00;;;;;;5052403;28;20182;-67
2021/11/14 11:31:50;;;;;;;4.95;2.70;;;18.60;62.10;;;;;;5051227;28;20171;-67
2021/11/14 11:34:18;;;;;;;4.93;2.97;;;18.60;62.20;;;;;;5052390;28;20664;-68
2021/11/14 11:36:44;;;;;;;2.72;2.53;;;18.60;62.40;;;;;;5052190;28;20171;-68
2021/11/14 11:39:10;;;;;;;4.10;3.22;;;18.60;62.40;;;;;;5051734;28;20229;-68
2021/11/14 11:41:36;;;;;;;3.33;2.83;;;18.60;62.40;;;;;;5051995;28;20254;-68
2021/11/14 11:44:03;;;;;;;4.35;3.10;;;18.60;62.30;;;;;;5050855;28;20178;-68
2021/11/14 11:46:31;;;;;;;5.90;2.72;;;18.60;62.20;;;;;;5051095;28;20538;-67
2021/11/14 11:48:59;;;;;;;3.13;2.83;;;18.60;62.40;;;;;;5052252;28;20194;-67
2021/11/14 11:51:54;;;;;;;4.95;3.20;;;18.60;62.40;;;;;;5050925;28;20193;-63
2021/11/14 11:54:21;;;;;;;3.17;2.55;;;18.60;62.40;;;;;;5051011;28;20680;-63
2021/11/14 11:57:20;;;;;;;5.03;3.10;;;18.60;62.60;;;;;;5051649;28;20645;-64
2021/11/14 11:59:47;;;;;;;5.60;3.83;;;18.50;62.70;;;;;;5037030;28;20198;-65
2021/11/14 12:02:15;;;;;;;3.92;3.15;;;18.40;62.70;;;;;;5052036;28;20202;-72
2021/11/14 12:04:45;;;;;;;6.13;3.53;;;18.50;62.80;;;;;;5051604;28;20280;-69
2021/11/14 12:07:13;;;;;;;4.63;3.65;;;18.40;62.70;;;;;;5051028;28;20192;-62
2021/11/14 12:09:44;;;;;;;3.80;3.38;;;18.50;62.70;;;;;;5051476;28;20175;-67
2021/11/14 12:12:25;;;;;;;4.60;3.30;;;18.50;63.40;;;;;;5051647;28;20545;-67
2021/11/14 12:15:11;;;;;;;5.70;3.40;;;18.50;62.60;;;;;;5050579;28;20266;-67
2021/11/14 12:17:37;;;;;;;4.20;3.15;;;18.50;62.50;;;;;;5051409;28;20223;-68
2021/11/14 12:20:08;;;;;;;4.93;3.38;;;18.50;62.50;;;;;;5051369;28;20656;-66
2021/11/14 12:22:42;;;;;;;5.57;3.35;;;18.40;62.50;;;;;;5059282;28;20178;-67
2021/11/14 12:25:07;;;;;;;5.75;3.63;;;18.50;62.60;;;;;;5065289;28;20657;-66
2021/11/14 12:27:37;;;;;;;6.28;3.60;;;18.50;62.60;;;;;;5071117;28;20183;-67
2021/11/14 12:30:11;;;;;;;4.47;3.30;;;18.40;62.60;;;;;;5070702;28;20178;-67
2021/11/14 12:32:55;;;;;;;4.63;3.17;;;18.40;62.70;;;;;;5071340;28;20174;-68
2021/11/14 12:35:24;;;;;;;3.50;2.80;;;18.40;62.70;;;;;;5075034;28;20186;-67
2021/11/14 12:37:51;;;;;;;3.92;3.08;;;18.40;62.80;;;;;;5075247;28;20213;-68
2021/11/14 12:40:22;;;;;;;4.00;3.50;;;18.30;62.80;;;;;;5075663;28;20174;-67
2021/11/14 12:42:49;;;;;;;4.70;3.22;;;18.30;62.90;;;;;;5074663;28;20163;-69
2021/11/14 12:45:15;;;;;;;4.68;3.15;;;18.30;62.90;;;;;;5075715;28;20186;-70
2021/11/14 12:47:43;;;;;;;6.55;3.13;;;18.30;63.00;;;;;;5073945;28;20226;-64
2021/11/14 12:50:14;;;;;;;6.47;3.53;;;18.30;63.10;;;;;;5074751;28;20178;-67